sensor_id;sensor_type;location;lat;lon;timestamp;P1;durP1;ratioP1;P2;durP2;ratioP2
75990;SDS011;64673;52.276;10.560;2023-07-22T00:01:33;5.90;;;2.67;;
75990;SDS011;64673;52.276;10.560;2023-07-22T00:03:58;3.45;;;2.55;;
75990;SDS011;64673;52.276;10.560;2023-07-22T00:06:24;4.20;;;2.70;;
75990;SDS011;64673;52.276;10.560;2023-07-22T00:08:49;5.25;;;3.33;;
75990;SDS011;64673;52.276;10.560;2023-07-22T00:11:15;5.43;;;3.20;;
75990;SDS011;64673;52.276;10.560;2023-07-22T00:13:40;4.10;;;2.97;;
75990;SDS011;64673;52.276;10.560;2023-07-22T00:16:06;6.28;;;3.45;;
75990;SDS011;64673;52.276;10.560;2023-07-22T00:18:33;4.90;;;3.15;;
75990;SDS011;64673;52.276;10.560;2023-07-22T00:21:01;7.10;;;3.78;;
75990;SDS011;64673;52.276;10.560;2023-07-22T00:23:26;6.18;;;3.25;;
75990;SDS011;64673;52.276;10.560;2023-07-22T00:25:52;5.32;;;3.40;;
75990;SDS011;64673;52.276;10.560;2023-07-22T00:28:17;5.20;;;3.05;;
75990;SDS011;64673;52.276;10.560;2023-07-22T00:30:43;5.78;;;3.25;;
75990;SDS011;64673;52.276;10.560;2023-07-22T00:33:08;5.60;;;3.28;;
75990;SDS011;64673;52.276;10.560;2023-07-22T00:35:34;6.70;;;3.60;;
75990;SDS011;64673;52.276;10.560;2023-07-22T00:38:00;6.47;;;3.67;;
75990;SDS011;64673;52.276;10.560;2023-07-22T00:40:26;6.05;;;3.75;;
75990;SDS011;64673;52.276;10.560;2023-07-22T00:42:52;6.93;;;4.55;;
75990;SDS011;64673;52.276;10.560;2023-07-22T00:45:17;6.60;;;3.80;;
75990;SDS011;64673;52.276;10.560;2023-07-22T00:47:43;6.13;;;3.75;;
75990;SDS011;64673;52.276;10.560;2023-07-22T00:50:10;8.50;;;3.90;;
75990;SDS011;64673;52.276;10.560;2023-07-22T00:52:35;8.13;;;4.00;;
75990;SDS011;64673;52.276;10.560;2023-07-22T00:55:01;7.55;;;4.10;;
75990;SDS011;64673;52.276;10.560;2023-07-22T00:57:27;6.90;;;3.88;;
75990;SDS011;64673;52.276;10.560;2023-07-22T00:59:53;8.90;;;4.50;;
75990;SDS011;64673;52.276;10.560;2023-07-22T01:02:19;7.22;;;4.45;;
75990;SDS011;64673;52.276;10.560;2023-07-22T01:04:46;9.32;;;4.43;;
75990;SDS011;64673;52.276;10.560;2023-07-22T01:07:12;9.93;;;4.70;;
75990;SDS011;64673;52.276;10.560;2023-07-22T01:09:41;8.40;;;4.30;;
75990;SDS011;64673;52.276;10.560;2023-07-22T01:12:08;7.07;;;4.40;;
75990;SDS011;64673;52.276;10.560;2023-07-22T01:14:34;7.78;;;5.07;;
75990;SDS011;64673;52.276;10.560;2023-07-22T01:17:03;10.95;;;4.45;;
75990;SDS011;64673;52.276;10.560;2023-07-22T01:19:30;8.38;;;4.45;;
75990;SDS011;64673;52.276;10.560;2023-07-22T01:21:57;8.43;;;4.72;;
75990;SDS011;64673;52.276;10.560;2023-07-22T01:24:25;7.70;;;4.43;;
75990;SDS011;64673;52.276;10.560;2023-07-22T01:26:51;8.75;;;5.03;;
75990;SDS011;64673;52.276;10.560;2023-07-22T01:29:16;7.80;;;4.40;;
75990;SDS011;64673;52.276;10.560;2023-07-22T01:31:41;9.80;;;4.30;;
75990;SDS011;64673;52.276;10.560;2023-07-22T01:34:07;10.10;;;5.22;;
75990;SDS011;64673;52.276;10.560;2023-07-22T01:36:32;8.00;;;4.72;;
75990;SDS011;64673;52.276;10.560;2023-07-22T01:38:57;10.50;;;4.90;;
75990;SDS011;64673;52.276;10.560;2023-07-22T01:41:23;10.77;;;5.35;;
75990;SDS011;64673;52.276;10.560;2023-07-22T01:43:48;9.73;;;5.03;;
75990;SDS011;64673;52.276;10.560;2023-07-22T01:46:14;8.60;;;4.38;;
75990;SDS011;64673;52.276;10.560;2023-07-22T01:48:39;7.50;;;4.32;;
75990;SDS011;64673;52.276;10.560;2023-07-22T01:51:04;10.82;;;4.63;;
75990;SDS011;64673;52.276;10.560;2023-07-22T01:53:30;11.15;;;5.35;;
75990;SDS011;64673;52.276;10.560;2023-07-22T01:55:55;9.45;;;4.88;;
75990;SDS011;64673;52.276;10.560;2023-07-22T01:58:21;10.75;;;5.30;;
75990;SDS011;64673;52.276;10.560;2023-07-22T02:00:50;9.52;;;4.72;;
75990;SDS011;64673;52.276;10.560;2023-07-22T02:03:15;8.80;;;4.75;;
75990;SDS011;64673;52.276;10.560;2023-07-22T02:05:41;9.50;;;5.28;;
75990;SDS011;64673;52.276;10.560;2023-07-22T02:08:06;9.88;;;4.80;;
75990;SDS011;64673;52.276;10.560;2023-07-22T02:10:31;11.27;;;5.47;;
75990;SDS011;64673;52.276;10.560;2023-07-22T02:12:57;13.95;;;5.63;;
75990;SDS011;64673;52.276;10.560;2023-07-22T02:15:22;8.88;;;5.15;;
75990;SDS011;64673;52.276;10.560;2023-07-22T02:17:49;10.65;;;5.38;;
75990;SDS011;64673;52.276;10.560;2023-07-22T02:20:14;13.55;;;6.03;;
75990;SDS011;64673;52.276;10.560;2023-07-22T02:22:43;11.32;;;5.43;;
75990;SDS011;64673;52.276;10.560;2023-07-22T02:25:08;12.60;;;6.15;;
75990;SDS011;64673;52.276;10.560;2023-07-22T02:27:35;11.63;;;5.93;;
75990;SDS011;64673;52.276;10.560;2023-07-22T02:30:01;12.43;;;5.45;;
75990;SDS011;64673;52.276;10.560;2023-07-22T02:32:26;10.05;;;5.43;;
75990;SDS011;64673;52.276;10.560;2023-07-22T02:34:52;10.23;;;5.22;;
75990;SDS011;64673;52.276;10.560;2023-07-22T02:37:17;12.32;;;5.47;;
75990;SDS011;64673;52.276;10.560;2023-07-22T02:39:42;10.40;;;5.82;;
75990;SDS011;64673;52.276;10.560;2023-07-22T02:42:08;8.95;;;5.30;;
75990;SDS011;64673;52.276;10.560;2023-07-22T02:44:33;13.02;;;5.35;;
75990;SDS011;64673;52.276;10.560;2023-07-22T02:46:58;10.88;;;5.35;;
75990;SDS011;64673;52.276;10.560;2023-07-22T02:49:24;9.52;;;5.13;;
75990;SDS011;64673;52.276;10.560;2023-07-22T02:51:49;11.70;;;4.85;;
75990;SDS011;64673;52.276;10.560;2023-07-22T02:54:15;11.85;;;5.38;;
75990;SDS011;64673;52.276;10.560;2023-07-22T02:56:40;13.18;;;5.10;;
75990;SDS011;64673;52.276;10.560;2023-07-22T02:59:06;10.55;;;5.20;;
75990;SDS011;64673;52.276;10.560;2023-07-22T03:01:31;12.05;;;6.20;;
75990;SDS011;64673;52.276;10.560;2023-07-22T03:03:57;10.85;;;5.45;;
75990;SDS011;64673;52.276;10.560;2023-07-22T03:06:22;10.98;;;5.57;;
75990;SDS011;64673;52.276;10.560;2023-07-22T03:08:47;12.57;;;5.75;;
75990;SDS011;64673;52.276;10.560;2023-07-22T03:11:13;10.38;;;5.07;;
75990;SDS011;64673;52.276;10.560;2023-07-22T03:13:39;7.70;;;4.03;;
75990;SDS011;64673;52.276;10.560;2023-07-22T03:16:04;10.50;;;4.85;;
75990;SDS011;64673;52.276;10.560;2023-07-22T03:18:30;10.63;;;4.30;;
75990;SDS011;64673;52.276;10.560;2023-07-22T03:20:56;9.23;;;4.72;;
75990;SDS011;64673;52.276;10.560;2023-07-22T03:23:22;8.73;;;4.60;;
75990;SDS011;64673;52.276;10.560;2023-07-22T03:25:47;10.30;;;4.55;;
75990;SDS011;64673;52.276;10.560;2023-07-22T03:28:13;9.70;;;3.97;;
75990;SDS011;64673;52.276;10.560;2023-07-22T03:30:38;11.85;;;4.25;;
75990;SDS011;64673;52.276;10.560;2023-07-22T03:33:04;8.40;;;4.25;;
75990;SDS011;64673;52.276;10.560;2023-07-22T03:35:30;9.10;;;4.00;;
75990;SDS011;64673;52.276;10.560;2023-07-22T03:40:23;8.27;;;3.53;;
75990;SDS011;64673;52.276;10.560;2023-07-22T03:42:53;8.38;;;3.97;;
75990;SDS011;64673;52.276;10.560;2023-07-22T03:45:21;7.97;;;3.35;;
75990;SDS011;64673;52.276;10.560;2023-07-22T03:47:51;8.68;;;4.65;;
75990;SDS011;64673;52.276;10.560;2023-07-22T03:50:19;9.48;;;4.35;;
75990;SDS011;64673;52.276;10.560;2023-07-22T03:52:44;7.50;;;3.55;;
75990;SDS011;64673;52.276;10.560;2023-07-22T03:55:10;6.60;;;3.60;;
75990;SDS011;64673;52.276;10.560;2023-07-22T03:57:35;12.55;;;3.92;;
75990;SDS011;64673;52.276;10.560;2023-07-22T04:00:01;6.18;;;3.25;;
75990;SDS011;64673;52.276;10.560;2023-07-22T04:04:54;6.63;;;3.17;;
75990;SDS011;64673;52.276;10.560;2023-07-22T04:07:20;8.57;;;4.18;;
75990;SDS011;64673;52.276;10.560;2023-07-22T04:09:45;8.43;;;3.72;;
75990;SDS011;64673;52.276;10.560;2023-07-22T04:12:11;7.65;;;3.65;;
75990;SDS011;64673;52.276;10.560;2023-07-22T04:14:37;9.13;;;3.35;;
75990;SDS011;64673;52.276;10.560;2023-07-22T04:17:03;9.55;;;3.75;;
75990;SDS011;64673;52.276;10.560;2023-07-22T04:19:29;7.40;;;3.38;;
75990;SDS011;64673;52.276;10.560;2023-07-22T04:21:54;7.22;;;3.05;;
75990;SDS011;64673;52.276;10.560;2023-07-22T04:24:20;7.35;;;3.75;;
75990;SDS011;64673;52.276;10.560;2023-07-22T04:26:45;7.70;;;3.47;;
75990;SDS011;64673;52.276;10.560;2023-07-22T04:29:11;7.53;;;3.70;;
75990;SDS011;64673;52.276;10.560;2023-07-22T04:31:37;6.50;;;3.50;;
75990;SDS011;64673;52.276;10.560;2023-07-22T04:34:03;9.00;;;3.80;;
75990;SDS011;64673;52.276;10.560;2023-07-22T04:36:30;8.35;;;3.30;;
75990;SDS011;64673;52.276;10.560;2023-07-22T04:38:55;6.95;;;3.47;;
75990;SDS011;64673;52.276;10.560;2023-07-22T04:41:21;8.43;;;3.25;;
75990;SDS011;64673;52.276;10.560;2023-07-22T04:43:46;8.10;;;3.38;;
75990;SDS011;64673;52.276;10.560;2023-07-22T04:46:12;9.15;;;3.47;;
75990;SDS011;64673;52.276;10.560;2023-07-22T04:48:38;8.35;;;3.25;;
75990;SDS011;64673;52.276;10.560;2023-07-22T04:51:03;8.15;;;3.53;;
75990;SDS011;64673;52.276;10.560;2023-07-22T04:53:28;8.73;;;2.97;;
75990;SDS011;64673;52.276;10.560;2023-07-22T04:55:54;7.30;;;3.30;;
75990;SDS011;64673;52.276;10.560;2023-07-22T04:58:20;6.63;;;3.05;;
75990;SDS011;64673;52.276;10.560;2023-07-22T05:00:46;9.55;;;3.17;;
75990;SDS011;64673;52.276;10.560;2023-07-22T05:03:11;6.65;;;3.22;;
75990;SDS011;64673;52.276;10.560;2023-07-22T05:05:36;6.20;;;3.25;;
75990;SDS011;64673;52.276;10.560;2023-07-22T05:08:02;6.88;;;3.00;;
75990;SDS011;64673;52.276;10.560;2023-07-22T05:10:27;7.57;;;3.55;;
75990;SDS011;64673;52.276;10.560;2023-07-22T05:12:54;9.00;;;3.70;;
75990;SDS011;64673;52.276;10.560;2023-07-22T05:15:21;8.02;;;3.78;;
75990;SDS011;64673;52.276;10.560;2023-07-22T05:17:47;7.80;;;3.47;;
75990;SDS011;64673;52.276;10.560;2023-07-22T05:20:12;10.77;;;3.60;;
75990;SDS011;64673;52.276;10.560;2023-07-22T05:22:38;7.70;;;3.60;;
75990;SDS011;64673;52.276;10.560;2023-07-22T05:25:05;7.60;;;3.88;;
75990;SDS011;64673;52.276;10.560;2023-07-22T05:27:31;6.70;;;3.83;;
75990;SDS011;64673;52.276;10.560;2023-07-22T05:29:56;6.30;;;3.05;;
75990;SDS011;64673;52.276;10.560;2023-07-22T05:32:21;6.90;;;3.42;;
75990;SDS011;64673;52.276;10.560;2023-07-22T05:34:47;6.22;;;2.97;;
75990;SDS011;64673;52.276;10.560;2023-07-22T05:37:12;8.32;;;3.22;;
75990;SDS011;64673;52.276;10.560;2023-07-22T05:39:37;8.38;;;2.92;;
75990;SDS011;64673;52.276;10.560;2023-07-22T05:42:03;8.38;;;3.15;;
75990;SDS011;64673;52.276;10.560;2023-07-22T05:44:28;8.95;;;3.65;;
75990;SDS011;64673;52.276;10.560;2023-07-22T05:46:54;7.22;;;3.95;;
75990;SDS011;64673;52.276;10.560;2023-07-22T05:49:20;8.90;;;3.22;;
75990;SDS011;64673;52.276;10.560;2023-07-22T05:51:45;8.07;;;2.83;;
75990;SDS011;64673;52.276;10.560;2023-07-22T05:54:11;6.53;;;3.13;;
75990;SDS011;64673;52.276;10.560;2023-07-22T05:56:36;6.88;;;3.10;;
75990;SDS011;64673;52.276;10.560;2023-07-22T05:59:01;7.18;;;3.00;;
75990;SDS011;64673;52.276;10.560;2023-07-22T06:01:27;8.32;;;2.85;;
75990;SDS011;64673;52.276;10.560;2023-07-22T06:03:52;5.82;;;3.13;;
75990;SDS011;64673;52.276;10.560;2023-07-22T06:06:18;5.88;;;2.72;;
75990;SDS011;64673;52.276;10.560;2023-07-22T06:08:43;5.10;;;2.60;;
75990;SDS011;64673;52.276;10.560;2023-07-22T06:11:08;7.38;;;2.55;;
75990;SDS011;64673;52.276;10.560;2023-07-22T06:13:34;7.60;;;2.80;;
75990;SDS011;64673;52.276;10.560;2023-07-22T06:15:59;7.03;;;3.20;;
75990;SDS011;64673;52.276;10.560;2023-07-22T06:18:24;5.40;;;2.70;;
75990;SDS011;64673;52.276;10.560;2023-07-22T06:20:50;6.57;;;2.85;;
75990;SDS011;64673;52.276;10.560;2023-07-22T06:23:15;8.27;;;3.10;;
75990;SDS011;64673;52.276;10.560;2023-07-22T06:25:41;6.40;;;2.97;;
75990;SDS011;64673;52.276;10.560;2023-07-22T06:28:06;8.02;;;3.20;;
75990;SDS011;64673;52.276;10.560;2023-07-22T06:30:31;6.05;;;3.17;;
75990;SDS011;64673;52.276;10.560;2023-07-22T06:32:57;7.30;;;2.80;;
75990;SDS011;64673;52.276;10.560;2023-07-22T06:35:22;6.70;;;3.42;;
75990;SDS011;64673;52.276;10.560;2023-07-22T06:37:48;18.00;;;3.65;;
75990;SDS011;64673;52.276;10.560;2023-07-22T06:40:13;7.90;;;3.25;;
75990;SDS011;64673;52.276;10.560;2023-07-22T06:42:38;6.90;;;3.22;;
75990;SDS011;64673;52.276;10.560;2023-07-22T06:45:04;6.00;;;2.88;;
75990;SDS011;64673;52.276;10.560;2023-07-22T06:47:30;7.50;;;3.03;;
75990;SDS011;64673;52.276;10.560;2023-07-22T06:49:55;7.78;;;3.20;;
75990;SDS011;64673;52.276;10.560;2023-07-22T06:52:21;6.95;;;2.80;;
75990;SDS011;64673;52.276;10.560;2023-07-22T06:54:46;7.78;;;3.72;;
75990;SDS011;64673;52.276;10.560;2023-07-22T06:57:11;5.63;;;2.90;;
75990;SDS011;64673;52.276;10.560;2023-07-22T06:59:37;8.07;;;2.83;;
75990;SDS011;64673;52.276;10.560;2023-07-22T07:02:02;7.78;;;3.20;;
75990;SDS011;64673;52.276;10.560;2023-07-22T07:04:30;6.88;;;3.35;;
75990;SDS011;64673;52.276;10.560;2023-07-22T07:06:55;8.05;;;3.05;;
75990;SDS011;64673;52.276;10.560;2023-07-22T07:09:20;8.07;;;3.00;;
75990;SDS011;64673;52.276;10.560;2023-07-22T07:11:46;6.82;;;2.90;;
75990;SDS011;64673;52.276;10.560;2023-07-22T07:14:11;6.18;;;3.45;;
75990;SDS011;64673;52.276;10.560;2023-07-22T07:16:37;5.65;;;3.20;;
75990;SDS011;64673;52.276;10.560;2023-07-22T07:19:03;8.18;;;3.03;;
75990;SDS011;64673;52.276;10.560;2023-07-22T07:21:28;9.85;;;3.72;;
75990;SDS011;64673;52.276;10.560;2023-07-22T07:23:54;7.28;;;3.05;;
75990;SDS011;64673;52.276;10.560;2023-07-22T07:26:20;6.68;;;2.75;;
75990;SDS011;64673;52.276;10.560;2023-07-22T07:28:47;6.95;;;2.70;;
75990;SDS011;64673;52.276;10.560;2023-07-22T07:31:13;6.22;;;3.30;;
75990;SDS011;64673;52.276;10.560;2023-07-22T07:33:38;7.82;;;3.08;;
75990;SDS011;64673;52.276;10.560;2023-07-22T07:36:04;5.65;;;2.88;;
75990;SDS011;64673;52.276;10.560;2023-07-22T07:38:30;6.57;;;2.85;;
75990;SDS011;64673;52.276;10.560;2023-07-22T07:40:56;7.07;;;2.88;;
75990;SDS011;64673;52.276;10.560;2023-07-22T07:43:25;6.13;;;2.70;;
75990;SDS011;64673;52.276;10.560;2023-07-22T07:46:11;5.03;;;2.95;;
75990;SDS011;64673;52.276;10.560;2023-07-22T07:48:46;7.20;;;2.75;;
75990;SDS011;64673;52.276;10.560;2023-07-22T07:51:13;8.40;;;3.17;;
75990;SDS011;64673;52.276;10.560;2023-07-22T07:53:39;7.13;;;3.53;;
75990;SDS011;64673;52.276;10.560;2023-07-22T07:56:06;5.53;;;2.65;;
75990;SDS011;64673;52.276;10.560;2023-07-22T07:58:31;6.93;;;2.80;;
75990;SDS011;64673;52.276;10.560;2023-07-22T08:00:56;5.97;;;2.83;;
75990;SDS011;64673;52.276;10.560;2023-07-22T08:03:22;8.82;;;3.22;;
75990;SDS011;64673;52.276;10.560;2023-07-22T08:05:47;7.07;;;3.40;;
75990;SDS011;64673;52.276;10.560;2023-07-22T08:08:12;7.40;;;3.20;;
75990;SDS011;64673;52.276;10.560;2023-07-22T08:10:38;6.32;;;3.40;;
75990;SDS011;64673;52.276;10.560;2023-07-22T08:13:04;4.97;;;2.80;;
75990;SDS011;64673;52.276;10.560;2023-07-22T08:15:29;6.18;;;3.50;;
75990;SDS011;64673;52.276;10.560;2023-07-22T08:17:54;9.70;;;3.17;;
75990;SDS011;64673;52.276;10.560;2023-07-22T08:20:20;7.35;;;3.10;;
75990;SDS011;64673;52.276;10.560;2023-07-22T08:22:46;5.85;;;2.80;;
75990;SDS011;64673;52.276;10.560;2023-07-22T08:25:11;6.68;;;3.08;;
75990;SDS011;64673;52.276;10.560;2023-07-22T08:27:37;5.63;;;2.95;;
75990;SDS011;64673;52.276;10.560;2023-07-22T08:30:02;7.45;;;3.55;;
75990;SDS011;64673;52.276;10.560;2023-07-22T08:32:28;5.82;;;3.28;;
75990;SDS011;64673;52.276;10.560;2023-07-22T08:34:53;6.22;;;3.40;;
75990;SDS011;64673;52.276;10.560;2023-07-22T08:37:18;6.00;;;3.33;;
75990;SDS011;64673;52.276;10.560;2023-07-22T08:39:44;6.18;;;3.17;;
75990;SDS011;64673;52.276;10.560;2023-07-22T08:42:09;6.63;;;3.83;;
75990;SDS011;64673;52.276;10.560;2023-07-22T08:44:38;8.55;;;3.38;;
75990;SDS011;64673;52.276;10.560;2023-07-22T08:47:09;8.38;;;3.90;;
75990;SDS011;64673;52.276;10.560;2023-07-22T08:49:38;7.32;;;3.55;;
75990;SDS011;64673;52.276;10.560;2023-07-22T08:52:05;6.50;;;3.53;;
75990;SDS011;64673;52.276;10.560;2023-07-22T08:54:31;6.65;;;3.08;;
75990;SDS011;64673;52.276;10.560;2023-07-22T08:56:58;7.68;;;4.28;;
75990;SDS011;64673;52.276;10.560;2023-07-22T08:59:24;6.10;;;3.38;;
75990;SDS011;64673;52.276;10.560;2023-07-22T09:01:49;6.15;;;3.08;;
75990;SDS011;64673;52.276;10.560;2023-07-22T09:06:44;7.30;;;3.60;;
75990;SDS011;64673;52.276;10.560;2023-07-22T09:09:10;5.72;;;3.08;;
75990;SDS011;64673;52.276;10.560;2023-07-22T09:11:36;7.18;;;3.38;;
75990;SDS011;64673;52.276;10.560;2023-07-22T09:14:02;10.23;;;3.80;;
75990;SDS011;64673;52.276;10.560;2023-07-22T09:16:29;5.75;;;3.40;;
75990;SDS011;64673;52.276;10.560;2023-07-22T09:18:57;7.53;;;3.90;;
75990;SDS011;64673;52.276;10.560;2023-07-22T09:21:23;6.05;;;3.28;;
75990;SDS011;64673;52.276;10.560;2023-07-22T09:23:48;7.55;;;3.72;;
75990;SDS011;64673;52.276;10.560;2023-07-22T09:26:14;7.63;;;4.05;;
75990;SDS011;64673;52.276;10.560;2023-07-22T09:31:15;7.38;;;4.60;;
75990;SDS011;64673;52.276;10.560;2023-07-22T09:33:42;10.48;;;4.22;;
75990;SDS011;64673;52.276;10.560;2023-07-22T09:36:09;10.00;;;4.20;;
75990;SDS011;64673;52.276;10.560;2023-07-22T09:38:35;8.50;;;4.22;;
75990;SDS011;64673;52.276;10.560;2023-07-22T09:41:01;8.68;;;4.68;;
75990;SDS011;64673;52.276;10.560;2023-07-22T09:43:26;8.13;;;4.25;;
75990;SDS011;64673;52.276;10.560;2023-07-22T09:45:52;8.98;;;4.90;;
75990;SDS011;64673;52.276;10.560;2023-07-22T09:48:20;10.60;;;4.40;;
75990;SDS011;64673;52.276;10.560;2023-07-22T09:50:55;7.82;;;4.30;;
75990;SDS011;64673;52.276;10.560;2023-07-22T09:53:21;7.97;;;4.55;;
75990;SDS011;64673;52.276;10.560;2023-07-22T09:55:46;11.63;;;4.80;;
75990;SDS011;64673;52.276;10.560;2023-07-22T09:58:12;8.60;;;4.85;;
75990;SDS011;64673;52.276;10.560;2023-07-22T10:00:39;9.63;;;4.75;;
75990;SDS011;64673;52.276;10.560;2023-07-22T10:03:09;11.15;;;4.97;;
75990;SDS011;64673;52.276;10.560;2023-07-22T10:05:37;12.63;;;4.50;;
75990;SDS011;64673;52.276;10.560;2023-07-22T10:08:04;9.68;;;4.85;;
75990;SDS011;64673;52.276;10.560;2023-07-22T10:10:32;8.48;;;4.53;;
75990;SDS011;64673;52.276;10.560;2023-07-22T10:13:02;8.25;;;4.60;;
75990;SDS011;64673;52.276;10.560;2023-07-22T10:15:30;7.45;;;4.40;;
75990;SDS011;64673;52.276;10.560;2023-07-22T10:17:58;7.90;;;4.03;;
75990;SDS011;64673;52.276;10.560;2023-07-22T10:20:24;9.32;;;4.55;;
75990;SDS011;64673;52.276;10.560;2023-07-22T10:22:50;8.10;;;3.83;;
75990;SDS011;64673;52.276;10.560;2023-07-22T10:25:16;7.53;;;4.10;;
75990;SDS011;64673;52.276;10.560;2023-07-22T10:27:42;6.97;;;4.05;;
75990;SDS011;64673;52.276;10.560;2023-07-22T10:30:09;9.85;;;4.07;;
75990;SDS011;64673;52.276;10.560;2023-07-22T10:32:36;8.02;;;3.97;;
75990;SDS011;64673;52.276;10.560;2023-07-22T10:35:03;6.40;;;3.63;;
75990;SDS011;64673;52.276;10.560;2023-07-22T10:37:30;7.18;;;3.80;;
75990;SDS011;64673;52.276;10.560;2023-07-22T10:40:00;7.35;;;4.03;;
75990;SDS011;64673;52.276;10.560;2023-07-22T10:43:09;6.15;;;3.55;;
75990;SDS011;64673;52.276;10.560;2023-07-22T10:45:32;5.30;;;3.00;;
75990;SDS011;64673;52.276;10.560;2023-07-22T10:50:40;5.55;;;3.17;;
75990;SDS011;64673;52.276;10.560;2023-07-22T10:53:09;6.13;;;3.10;;
75990;SDS011;64673;52.276;10.560;2023-07-22T10:56:02;5.40;;;3.17;;
75990;SDS011;64673;52.276;10.560;2023-07-22T10:58:54;5.63;;;3.05;;
75990;SDS011;64673;52.276;10.560;2023-07-22T11:11:57;6.35;;;3.15;;
75990;SDS011;64673;52.276;10.560;2023-07-22T11:14:27;5.35;;;2.53;;
75990;SDS011;64673;52.276;10.560;2023-07-22T11:16:57;4.85;;;3.10;;
75990;SDS011;64673;52.276;10.560;2023-07-22T11:19:24;5.78;;;2.88;;
75990;SDS011;64673;52.276;10.560;2023-07-22T11:21:51;4.78;;;2.45;;
75990;SDS011;64673;52.276;10.560;2023-07-22T11:24:19;4.15;;;2.47;;
75990;SDS011;64673;52.276;10.560;2023-07-22T11:26:45;5.55;;;2.85;;
75990;SDS011;64673;52.276;10.560;2023-07-22T11:29:12;5.30;;;2.67;;
75990;SDS011;64673;52.276;10.560;2023-07-22T11:34:08;3.60;;;2.17;;
75990;SDS011;64673;52.276;10.560;2023-07-22T11:36:34;5.47;;;2.15;;
75990;SDS011;64673;52.276;10.560;2023-07-22T11:39:04;5.22;;;2.50;;
75990;SDS011;64673;52.276;10.560;2023-07-22T11:41:31;3.70;;;2.20;;
75990;SDS011;64673;52.276;10.560;2023-07-22T11:43:58;5.82;;;2.40;;
75990;SDS011;64673;52.276;10.560;2023-07-22T11:46:24;3.80;;;2.05;;
75990;SDS011;64673;52.276;10.560;2023-07-22T11:48:51;4.57;;;2.15;;
75990;SDS011;64673;52.276;10.560;2023-07-22T11:51:20;4.50;;;2.42;;
75990;SDS011;64673;52.276;10.560;2023-07-22T11:53:47;3.35;;;2.17;;
75990;SDS011;64673;52.276;10.560;2023-07-22T11:56:23;4.68;;;2.55;;
75990;SDS011;64673;52.276;10.560;2023-07-22T11:58:50;3.85;;;1.98;;
75990;SDS011;64673;52.276;10.560;2023-07-22T12:01:17;3.50;;;2.03;;
75990;SDS011;64673;52.276;10.560;2023-07-22T12:03:42;3.90;;;2.20;;
75990;SDS011;64673;52.276;10.560;2023-07-22T12:06:08;5.10;;;2.55;;
75990;SDS011;64673;52.276;10.560;2023-07-22T12:08:34;4.20;;;2.10;;
75990;SDS011;64673;52.276;10.560;2023-07-22T12:11:01;5.28;;;2.50;;
75990;SDS011;64673;52.276;10.560;2023-07-22T12:13:27;4.88;;;2.55;;
75990;SDS011;64673;52.276;10.560;2023-07-22T12:15:59;4.07;;;2.17;;
75990;SDS011;64673;52.276;10.560;2023-07-22T12:18:40;4.88;;;2.58;;
75990;SDS011;64673;52.276;10.560;2023-07-22T12:21:07;4.70;;;2.40;;
75990;SDS011;64673;52.276;10.560;2023-07-22T12:23:32;5.82;;;2.58;;
75990;SDS011;64673;52.276;10.560;2023-07-22T12:25:57;5.10;;;2.08;;
75990;SDS011;64673;52.276;10.560;2023-07-22T12:28:23;4.63;;;2.47;;
75990;SDS011;64673;52.276;10.560;2023-07-22T12:30:49;5.32;;;2.67;;
75990;SDS011;64673;52.276;10.560;2023-07-22T12:33:14;3.25;;;1.95;;
75990;SDS011;64673;52.276;10.560;2023-07-22T12:35:39;5.50;;;2.53;;
75990;SDS011;64673;52.276;10.560;2023-07-22T12:38:04;5.03;;;2.38;;
75990;SDS011;64673;52.276;10.560;2023-07-22T12:40:30;4.50;;;2.35;;
75990;SDS011;64673;52.276;10.560;2023-07-22T12:42:55;4.22;;;2.50;;
75990;SDS011;64673;52.276;10.560;2023-07-22T12:45:20;3.50;;;2.50;;
75990;SDS011;64673;52.276;10.560;2023-07-22T12:47:46;4.18;;;2.50;;
75990;SDS011;64673;52.276;10.560;2023-07-22T12:50:12;4.53;;;2.47;;
75990;SDS011;64673;52.276;10.560;2023-07-22T12:52:37;4.05;;;2.40;;
75990;SDS011;64673;52.276;10.560;2023-07-22T12:55:03;4.75;;;2.20;;
75990;SDS011;64673;52.276;10.560;2023-07-22T12:57:28;5.75;;;2.80;;
75990;SDS011;64673;52.276;10.560;2023-07-22T12:59:54;4.15;;;2.28;;
75990;SDS011;64673;52.276;10.560;2023-07-22T13:02:19;4.10;;;2.28;;
75990;SDS011;64673;52.276;10.560;2023-07-22T13:04:44;3.63;;;2.20;;
75990;SDS011;64673;52.276;10.560;2023-07-22T13:07:10;4.63;;;2.20;;
75990;SDS011;64673;52.276;10.560;2023-07-22T13:09:36;2.92;;;2.10;;
75990;SDS011;64673;52.276;10.560;2023-07-22T13:12:01;4.68;;;2.30;;
75990;SDS011;64673;52.276;10.560;2023-07-22T13:14:26;4.43;;;2.55;;
75990;SDS011;64673;52.276;10.560;2023-07-22T13:16:52;4.28;;;2.17;;
75990;SDS011;64673;52.276;10.560;2023-07-22T13:19:17;4.60;;;1.80;;
75990;SDS011;64673;52.276;10.560;2023-07-22T13:21:42;3.70;;;1.73;;
75990;SDS011;64673;52.276;10.560;2023-07-22T13:24:08;3.30;;;2.13;;
75990;SDS011;64673;52.276;10.560;2023-07-22T13:26:34;4.03;;;2.30;;
75990;SDS011;64673;52.276;10.560;2023-07-22T13:29:00;4.60;;;2.33;;
75990;SDS011;64673;52.276;10.560;2023-07-22T13:31:25;5.55;;;2.90;;
75990;SDS011;64673;52.276;10.560;2023-07-22T13:33:50;6.15;;;3.13;;
75990;SDS011;64673;52.276;10.560;2023-07-22T13:36:16;5.70;;;3.15;;
75990;SDS011;64673;52.276;10.560;2023-07-22T13:38:41;8.48;;;3.30;;
75990;SDS011;64673;52.276;10.560;2023-07-22T13:41:06;6.18;;;3.08;;
75990;SDS011;64673;52.276;10.560;2023-07-22T13:43:32;6.80;;;3.42;;
75990;SDS011;64673;52.276;10.560;2023-07-22T13:45:57;7.25;;;3.50;;
75990;SDS011;64673;52.276;10.560;2023-07-22T13:48:23;4.60;;;2.83;;
75990;SDS011;64673;52.276;10.560;2023-07-22T13:50:48;7.13;;;3.33;;
75990;SDS011;64673;52.276;10.560;2023-07-22T13:53:13;5.15;;;3.30;;
75990;SDS011;64673;52.276;10.560;2023-07-22T13:55:39;8.60;;;3.42;;
75990;SDS011;64673;52.276;10.560;2023-07-22T13:58:04;5.95;;;3.30;;
75990;SDS011;64673;52.276;10.560;2023-07-22T14:00:29;4.75;;;2.97;;
75990;SDS011;64673;52.276;10.560;2023-07-22T14:02:55;5.72;;;2.80;;
75990;SDS011;64673;52.276;10.560;2023-07-22T14:05:22;5.28;;;2.75;;
75990;SDS011;64673;52.276;10.560;2023-07-22T14:07:47;5.97;;;2.95;;
75990;SDS011;64673;52.276;10.560;2023-07-22T14:10:13;6.35;;;3.08;;
75990;SDS011;64673;52.276;10.560;2023-07-22T14:12:38;7.28;;;3.30;;
75990;SDS011;64673;52.276;10.560;2023-07-22T14:15:03;7.38;;;3.90;;
75990;SDS011;64673;52.276;10.560;2023-07-22T14:17:29;6.75;;;3.17;;
75990;SDS011;64673;52.276;10.560;2023-07-22T14:19:57;5.43;;;3.35;;
75990;SDS011;64673;52.276;10.560;2023-07-22T14:22:22;6.35;;;4.00;;
75990;SDS011;64673;52.276;10.560;2023-07-22T14:24:48;7.22;;;4.00;;
75990;SDS011;64673;52.276;10.560;2023-07-22T14:27:13;7.03;;;3.42;;
75990;SDS011;64673;52.276;10.560;2023-07-22T14:29:38;4.97;;;3.28;;
75990;SDS011;64673;52.276;10.560;2023-07-22T14:32:04;7.18;;;3.65;;
75990;SDS011;64673;52.276;10.560;2023-07-22T14:34:29;9.73;;;3.55;;
75990;SDS011;64673;52.276;10.560;2023-07-22T14:36:55;7.65;;;3.53;;
75990;SDS011;64673;52.276;10.560;2023-07-22T14:39:20;6.20;;;3.22;;
75990;SDS011;64673;52.276;10.560;2023-07-22T14:41:45;5.28;;;2.97;;
75990;SDS011;64673;52.276;10.560;2023-07-22T14:44:11;5.05;;;3.00;;
75990;SDS011;64673;52.276;10.560;2023-07-22T14:46:36;5.57;;;3.30;;
75990;SDS011;64673;52.276;10.560;2023-07-22T14:49:02;6.65;;;3.55;;
75990;SDS011;64673;52.276;10.560;2023-07-22T14:51:28;5.30;;;3.15;;
75990;SDS011;64673;52.276;10.560;2023-07-22T14:53:54;5.10;;;3.25;;